Time,TemperatureF,DewpointF,PressureIn,WindDirection,WindDirectionDegrees,WindSpeedMPH,WindSpeedGustMPH,Humidity,HourlyPrecipIn,Conditions,Clouds,dailyrainin,SolarRadiationWatts/m^2,SoftwareType,DateUTC
2014-08-28 00:04:00,67.8,63.1,29.82,ENE,74,0.0,0.0,85,0.00,RA,,0.00,0.0,WeatherDisplay:10.37,2014-08-28 04:04:00,
2014-08-28 00:09:00,67.5,62.8,29.81,ENE,74,0.0,0.0,85,0.00,CLR,,0.00,0.0,WeatherDisplay:10.37,2014-08-28 04:09:00,
2014-08-28 00:14:00,67.2,62.5,29.81,ENE,74,0.0,0.0,85,0.00,CLR,,0.00,0.0,WeatherDisplay:10.37,2014-08-28 04:14:00,
2014-08-28 00:19:00,67.1,62.4,29.81,ENE,74,0.0,0.0,85,0.00,CLR,,0.00,0.0,WeatherDisplay:10.37,2014-08-28 04:19:00,
2014-08-28 00:24:00,66.9,62.5,29.81,ENE,74,0.0,0.0,86,0.00,CLR,,0.00,0.0,WeatherDisplay:10.37,2014-08-28 04:24:00,
2014-08-28 00:29:00,66.6,62.0,29.81,ENE,74,0.0,0.0,85,0.00,CLR,,0.00,0.0,WeatherDisplay:10.37,2014-08-28 04:29:00,
2014-08-28 00:39:00,66.2,61.9,29.81,ENE,74,0.0,0.0,86,0.00,CLR,,0.00,0.0,WeatherDisplay:10.37,2014-08-28 04:39:00,
2014-08-28 00:44:00,66.0,61.4,29.81,ENE,74,0.0,0.0,85,0.00,CLR,,0.00,0.0,WeatherDisplay:10.37,2014-08-28 04:44:00,
2014-08-28 00:49:00,65.9,61.3,29.81,ENE,74,0.0,0.0,85,0.00,CLR,,0.00,0.0,WeatherDisplay:10.37,2014-08-28 04:49:00,
2014-08-28 00:54:00,65.8,61.5,29.81,ENE,74,0.0,0.0,86,0.00,CLR,,0.00,0.0,WeatherDisplay:10.37,2014-08-28 04:54:00,
2014-08-28 00:59:00,65.7,61.4,29.80,ENE,74,0.0,0.0,86,0.00,CLR,,0.00,0.0,WeatherDisplay:10.37,2014-08-28 04:59:00,
2014-08-28 01:04:00,65.7,61.4,29.80,ENE,74,0.0,0.0,86,0.00,CLR,,0.00,0.0,WeatherDisplay:10.37,2014-08-28 05:04:00,
2014-08-28 01:09:00,65.5,61.2,29.80,ENE,74,0.0,0.0,86,0.00,CLR,,0.00,0.0,WeatherDisplay:10.37,2014-08-28 05:09:00,
2014-08-28 01:14:00,65.5,61.2,29.80,ENE,74,0.0,0.0,86,0.00,CLR,,0.00,0.0,WeatherDisplay:10.37,2014-08-28 05:14:00,
2014-08-28 01:19:00,65.5,61.2,29.79,ENE,74,0.0,0.0,86,0.00,CLR,,0.00,0.0,WeatherDisplay:10.37,2014-08-28 05:19:00,
2014-08-28 01:24:00,65.4,61.1,29.79,ENE,74,0.0,0.0,86,0.00,CLR,,0.00,0.0,WeatherDisplay:10.37,2014-08-28 05:24:00,
2014-08-28 01:29:00,65.4,61.1,29.79,ENE,74,0.0,0.0,86,0.00,CLR,,0.00,0.0,WeatherDisplay:10.37,2014-08-28 05:29:00,
2014-08-28 01:34:00,65.3,60.7,29.78,ENE,74,0.0,0.0,85,0.00,CLR,,0.00,0.0,WeatherDisplay:10.37,2014-08-28 05:34:00,
2014-08-28 01:39:00,65.3,60.7,29.79,ENE,74,0.0,0.0,85,0.00,CLR,,0.00,0.0,WeatherDisplay:10.37,2014-08-28 05:39:00,
2014-08-28 01:44:00,65.3,60.6,29.80,ENE,74,0.0,0.0,85,0.00,CLR,,0.00,0.0,WeatherDisplay:10.37,2014-08-28 05:44:00,
2014-08-28 01:49:00,65.2,60.6,29.80,ENE,74,0.0,0.0,85,0.00,CLR,,0.00,0.0,WeatherDisplay:10.37,2014-08-28 05:49:00,
2014-08-28 01:54:00,65.2,60.6,29.80,ENE,74,0.0,0.0,85,0.00,CLR,,0.00,0.0,WeatherDisplay:10.37,2014-08-28 05:54:00,
2014-08-28 01:59:00,65.2,60.6,29.79,ENE,74,0.0,0.0,85,0.00,CLR,,0.00,0.0,WeatherDisplay:10.37,2014-08-28 05:59:00,
2014-08-28 02:04:00,65.2,60.6,29.79,ENE,74,0.0,0.0,85,0.00,CLR,,0.00,0.0,WeatherDisplay:10.37,2014-08-28 06:04:00,
2014-08-28 02:09:00,65.2,60.6,29.79,ENE,74,0.0,0.0,85,0.00,CLR,,0.00,0.0,WeatherDisplay:10.37,2014-08-28 06:09:00,
2014-08-28 02:14:00,65.2,60.6,29.79,ENE,74,0.0,0.0,85,0.00,CLR,,0.00,0.0,WeatherDisplay:10.37,2014-08-28 06:14:00,
2014-08-28 02:19:00,65.2,60.5,29.79,ENE,74,0.0,0.0,85,0.00,CLR,,0.00,0.0,WeatherDisplay:10.37,2014-08-28 06:19:00,
2014-08-28 02:24:00,65.1,60.5,29.79,ENE,74,0.0,0.0,85,0.00,CLR,,0.00,0.0,WeatherDisplay:10.37,2014-08-28 06:24:00,
2014-08-28 02:29:00,65.1,60.4,29.79,ENE,74,0.0,0.0,85,0.00,CLR,,0.00,0.0,WeatherDisplay:10.37,2014-08-28 06:29:00,
2014-08-28 02:34:00,65.1,60.4,29.79,ENE,74,0.0,0.0,85,0.00,CLR,,0.00,0.0,WeatherDisplay:10.37,2014-08-28 06:34:00,
2014-08-28 02:39:00,65.1,60.5,29.79,ENE,74,0.0,0.0,85,0.00,CLR,,0.00,0.0,WeatherDisplay:10.37,2014-08-28 06:39:00,
2014-08-28 02:44:00,65.0,60.4,29.79,ENE,74,0.0,0.0,85,0.00,CLR,,0.00,0.0,WeatherDisplay:10.37,2014-08-28 06:44:00,
2014-08-28 02:49:00,65.0,60.4,29.79,ENE,74,0.0,0.0,85,0.00,CLR,,0.00,0.0,WeatherDisplay:10.37,2014-08-28 06:49:00,
2014-08-28 02:54:00,65.0,60.4,29.78,ENE,74,0.0,0.0,85,0.00,CLR,,0.00,0.0,WeatherDisplay:10.37,2014-08-28 06:54:00,
2014-08-28 02:59:00,65.0,60.4,29.78,ENE,74,0.0,0.0,85,0.00,CLR,,0.00,0.0,WeatherDisplay:10.37,2014-08-28 06:59:00,
2014-08-28 03:04:00,65.0,60.4,29.78,ENE,74,0.0,0.0,85,0.00,CLR,,0.00,0.0,WeatherDisplay:10.37,2014-08-28 07:04:00,
2014-08-28 03:09:00,65.0,60.7,29.78,ENE,74,0.0,0.0,86,0.00,CLR,,0.00,0.0,WeatherDisplay:10.37,2014-08-28 07:09:00,
2014-08-28 03:14:00,65.0,60.7,29.78,ENE,74,0.0,0.0,86,0.00,CLR,,0.00,0.0,WeatherDisplay:10.37,2014-08-28 07:14:00,
2014-08-28 03:19:00,64.9,60.6,29.78,ENE,74,0.0,0.0,86,0.00,CLR,,0.00,0.0,WeatherDisplay:10.37,2014-08-28 07:19:00,
2014-08-28 03:24:00,64.9,60.6,29.78,ENE,74,0.0,0.0,86,0.00,CLR,,0.00,0.0,WeatherDisplay:10.37,2014-08-28 07:24:00,
2014-08-28 03:29:00,64.8,60.5,29.78,ENE,74,0.0,0.0,86,0.00,CLR,,0.00,0.0,WeatherDisplay:10.37,2014-08-28 07:29:00,
2014-08-28 03:34:00,64.7,60.4,29.78,ENE,74,0.0,0.0,86,0.00,CLR,,0.00,0.0,WeatherDisplay:10.37,2014-08-28 07:34:00,
2014-08-28 03:39:00,64.7,60.4,29.78,ENE,74,0.0,0.0,86,0.00,CLR,,0.00,0.0,WeatherDisplay:10.37,2014-08-28 07:39:00,
2014-08-28 03:44:00,64.6,60.3,29.78,ENE,74,0.0,0.0,86,0.00,CLR,,0.00,0.0,WeatherDisplay:10.37,2014-08-28 07:44:00,
2014-08-28 03:49:00,64.5,60.2,29.77,ENE,74,0.0,0.0,86,0.00,CLR,,0.00,0.0,WeatherDisplay:10.37,2014-08-28 07:49:00,
2014-08-28 03:55:00,64.4,60.1,29.77,ENE,74,0.0,0.0,86,0.00,CLR,,0.00,0.0,WeatherDisplay:10.37,2014-08-28 07:55:00,
2014-08-28 04:04:00,64.1,59.8,29.78,ENE,74,0.0,0.0,86,0.00,CLR,,0.00,0.0,WeatherDisplay:10.37,2014-08-28 08:04:00,
2014-08-28 04:09:00,63.9,59.6,29.78,ENE,74,0.0,0.0,86,0.00,CLR,,0.00,0.0,WeatherDisplay:10.37,2014-08-28 08:09:00,
2014-08-28 04:14:00,63.8,59.5,29.77,ENE,74,0.0,0.0,86,0.00,CLR,,0.00,0.0,WeatherDisplay:10.37,2014-08-28 08:14:00,
2014-08-28 04:19:00,63.6,59.3,29.78,ENE,74,0.0,0.0,86,0.00,CLR,,0.00,0.0,WeatherDisplay:10.37,2014-08-28 08:19:00,
2014-08-28 04:24:00,63.5,59.2,29.78,ENE,74,0.0,0.0,86,0.00,CLR,,0.00,0.0,WeatherDisplay:10.37,2014-08-28 08:24:00,
2014-08-28 04:29:00,63.3,59.0,29.78,ENE,74,0.0,0.0,86,0.00,CLR,,0.00,0.0,WeatherDisplay:10.37,2014-08-28 08:29:00,
2014-08-28 04:34:00,63.2,58.9,29.78,ENE,74,0.0,0.0,86,0.00,CLR,,0.00,0.0,WeatherDisplay:10.37,2014-08-28 08:34:00,
2014-08-28 04:39:00,63.1,58.8,29.78,ENE,74,0.0,0.0,86,0.00,CLR,,0.00,0.0,WeatherDisplay:10.37,2014-08-28 08:39:00,
2014-08-28 04:44:00,62.9,58.6,29.77,ENE,74,0.0,0.0,86,0.00,CLR,,0.00,0.0,WeatherDisplay:10.37,2014-08-28 08:44:00,
2014-08-28 04:49:00,62.8,58.5,29.78,ENE,74,0.0,0.0,86,0.00,CLR,,0.00,0.0,WeatherDisplay:10.37,2014-08-28 08:49:00,
2014-08-28 04:54:00,62.6,58.4,29.78,ENE,74,0.0,0.0,86,0.00,CLR,,0.00,0.0,WeatherDisplay:10.37,2014-08-28 08:54:00,
2014-08-28 04:59:00,62.5,58.3,29.78,ENE,74,0.0,0.0,86,0.00,CLR,,0.00,0.0,WeatherDisplay:10.37,2014-08-28 08:59:00,
2014-08-28 05:04:00,62.4,58.2,29.78,ENE,74,0.0,0.0,86,0.00,CLR,,0.00,0.0,WeatherDisplay:10.37,2014-08-28 09:04:00,
2014-08-28 05:09:00,62.2,58.0,29.78,ENE,74,0.0,0.0,86,0.00,CLR,,0.00,0.0,WeatherDisplay:10.37,2014-08-28 09:09:00,
2014-08-28 05:14:00,62.1,57.9,29.78,ENE,74,0.0,0.0,86,0.00,CLR,,0.00,0.0,WeatherDisplay:10.37,2014-08-28 09:14:00,
2014-08-28 05:19:00,62.0,57.8,29.79,ENE,74,0.0,0.0,86,0.00,CLR,,0.00,0.0,WeatherDisplay:10.37,2014-08-28 09:19:00,
2014-08-28 05:24:00,61.8,57.6,29.79,ENE,74,0.0,0.0,86,0.00,CLR,,0.00,0.0,WeatherDisplay:10.37,2014-08-28 09:24:00,
2014-08-28 05:29:00,61.7,57.4,29.79,ENE,74,0.0,0.0,86,0.00,CLR,,0.00,0.0,WeatherDisplay:10.37,2014-08-28 09:29:00,
2014-08-28 05:34:00,61.5,57.3,29.79,ENE,74,0.0,0.0,86,0.00,CLR,,0.00,0.0,WeatherDisplay:10.37,2014-08-28 09:34:00,
2014-08-28 05:39:00,61.4,57.2,29.79,ENE,74,0.0,0.0,86,0.00,CLR,,0.00,0.0,WeatherDisplay:10.37,2014-08-28 09:39:00,
2014-08-28 05:44:00,61.2,57.0,29.79,ENE,74,0.0,0.0,86,0.00,CLR,,0.00,0.0,WeatherDisplay:10.37,2014-08-28 09:44:00,
2014-08-28 05:49:00,61.1,56.9,29.79,ENE,74,0.0,0.0,86,0.00,OVC,,0.00,0.0,WeatherDisplay:10.37,2014-08-28 09:49:00,
2014-08-28 05:54:00,61.1,56.8,29.79,ENE,74,0.0,0.0,86,0.00,OVC,,0.00,0.0,WeatherDisplay:10.37,2014-08-28 09:54:00,
2014-08-28 05:59:00,61.0,56.8,29.79,ENE,74,0.0,0.0,86,0.00,OVC,,0.00,0.0,WeatherDisplay:10.37,2014-08-28 09:59:00,
2014-08-28 06:05:00,60.9,56.7,29.79,ENE,74,0.0,0.0,86,0.00,OVC,,0.00,0.0,WeatherDisplay:10.37,2014-08-28 10:05:00,
2014-08-28 06:14:00,60.9,56.7,29.79,ENE,74,0.0,0.0,86,0.00,OVC,,0.00,0.0,WeatherDisplay:10.37,2014-08-28 10:14:00,
2014-08-28 06:19:00,60.8,56.6,29.79,ENE,74,0.0,0.0,86,0.00,OVC,,0.00,0.0,WeatherDisplay:10.37,2014-08-28 10:19:00,
2014-08-28 06:24:00,60.7,56.5,29.79,ENE,74,0.0,0.0,86,0.00,OVC,,0.00,0.0,WeatherDisplay:10.37,2014-08-28 10:24:00,
2014-08-28 06:29:00,60.6,56.4,29.79,ENE,74,0.0,0.0,86,0.00,OVC,,0.00,0.0,WeatherDisplay:10.37,2014-08-28 10:29:00,
2014-08-28 06:39:00,60.4,56.2,29.79,ENE,74,0.0,0.0,86,0.00,OVC,,0.00,0.0,WeatherDisplay:10.37,2014-08-28 10:39:00,
2014-08-28 06:44:00,60.3,56.1,29.79,ENE,74,0.0,0.0,86,0.00,OVC,,0.00,0.0,WeatherDisplay:10.37,2014-08-28 10:44:00,
2014-08-28 06:49:00,60.2,56.0,29.79,ENE,74,0.0,0.0,86,0.00,OVC,,0.00,0.0,WeatherDisplay:10.37,2014-08-28 10:49:00,
2014-08-28 06:54:00,60.2,56.0,29.79,ENE,74,0.0,0.0,86,0.00,OVC,,0.00,0.0,WeatherDisplay:10.37,2014-08-28 10:54:00,
2014-08-28 06:59:00,60.2,56.0,29.79,ENE,74,0.0,0.0,86,0.00,OVC,,0.00,0.0,WeatherDisplay:10.37,2014-08-28 10:59:00,
2014-08-28 07:04:00,60.2,56.0,29.80,ENE,74,0.0,0.0,86,0.00,OVC,,0.00,0.0,WeatherDisplay:10.37,2014-08-28 11:04:00,
2014-08-28 07:09:00,60.2,56.0,29.80,ENE,74,0.0,0.0,86,0.00,OVC,,0.00,0.0,WeatherDisplay:10.37,2014-08-28 11:09:00,
2014-08-28 07:14:00,60.2,56.0,29.80,ENE,74,0.0,0.0,86,0.00,OVC,,0.00,0.0,WeatherDisplay:10.37,2014-08-28 11:14:00,